Columbia — WDD6400 — position and weather

sailwx.info

Track history (hours):
 
Tides and Currents Weather Stations Pressure Air Temp Water Temp Dewpoint Dewpoint Depression Visibility Wind Speed Wind Dir Waves Ship Positions

Columbia

Owner: OSG Ship Management Inc., Tampa, FL. More information available from US FCC via Universal Licensing System and Coast Guard Vessel Documentation Center.

Last reported at 2016-Jul-01 11:31 UTC. Time now 2016-Jul-01 11:52 UTC.
Position N 30°11' W 093°19'.

Length 194 m; draft 9.6 m.

Type: Towing. MMSI: 367172440.

Date/timePositionNaut miles runAvg speedWind from/ knotsBaromVisibWave heightAir tempDewpointWater temp
2016-Jul-01 11:31N 30°11' W 093°19'0 0.0
2016-Jul-01 10:31N 30°11' W 093°19'0 0.0
2016-Jul-01 09:31N 30°11' W 093°19'0 0.0
2016-Jul-01 08:31N 30°11' W 093°19'0 0.0
2016-Jul-01 07:31N 30°11' W 093°19'0 0.0
2016-Jul-01 06:31N 30°11' W 093°19'0 0.0
2016-Jul-01 05:31N 30°11' W 093°19'0 0.0
2016-Jul-01 04:33N 30°11' W 093°19'1 1.4
2016-Jul-01 03:33N 30°09' W 093°20'7 7.5
2016-Jul-01 02:33N 30°02' W 093°20'8 8.3
2016-Jul-01 01:33N 29°54' W 093°21'7 6.8
2016-Jul-01 00:33N 29°47' W 093°21'  
2016-Jun-27 23:33N 27°45' W 082°31'9 8.7
2016-Jun-27 22:33N 27°53' W 082°26'3 3.1
2016-Jun-27 21:34N 27°56' W 082°27'2 1.9
2016-Jun-27 20:33N 27°54' W 082°26'1 1.0
2016-Jun-27 19:33N 27°55' W 082°26'0 0.0
2016-Jun-27 18:33N 27°55' W 082°26'0 0.0
2016-Jun-27 17:33N 27°55' W 082°26'0 0.0
2016-Jun-27 16:33N 27°55' W 082°26'1 1.1
2016-Jun-27 15:31N 27°54' W 082°25'0 0.0
2016-Jun-27 14:31N 27°54' W 082°25'0 0.0
2016-Jun-27 13:31N 27°54' W 082°25'0 0.0
2016-Jun-27 12:31N 27°54' W 082°25'1 0.1
2016-Jun-26 18:29N 27°55' W 082°26'1 1.1
2016-Jun-26 17:34N 27°55' W 082°27'1 0.6
2016-Jun-26 16:31N 27°56' W 082°27'0 0.4
2016-Jun-26 15:34N 27°56' W 082°27'3 2.8
2016-Jun-26 14:33N 27°54' W 082°26'8 7.5
2016-Jun-26 13:33N 27°47' W 082°31'  
2016-Jun-23 08:33N 29°45' W 093°20'8 8.3
2016-Jun-23 07:33N 29°53' W 093°21'15 7.5
2016-Jun-23 05:33N 30°08' W 093°20'3 2.6
2016-Jun-23 04:31N 30°11' W 093°19'0 0.0
2016-Jun-23 03:28N 30°11' W 093°19'0 0.0
2016-Jun-23 02:28N 30°11' W 093°19'0 0.0
2016-Jun-23 01:28N 30°11' W 093°19'0 0.0
2016-Jun-23 00:31N 30°11' W 093°19'0 0.0
2016-Jun-22 23:28N 30°11' W 093°19'0 0.0
2016-Jun-22 22:31N 30°11' W 093°19'0 0.0
2016-Jun-22 21:31N 30°11' W 093°19'0 0.0
2016-Jun-22 20:31N 30°11' W 093°19'0 0.0
2016-Jun-22 19:28N 30°11' W 093°19'0 0.0
2016-Jun-22 18:28N 30°11' W 093°19'0 0.0
2016-Jun-22 17:31N 30°11' W 093°19'0 0.0
2016-Jun-22 16:28N 30°11' W 093°19'0 0.0
2016-Jun-22 15:31N 30°11' W 093°19'0 0.0
2016-Jun-22 14:31N 30°11' W 093°19'0 0.0
2016-Jun-22 13:31N 30°11' W 093°19'0 0.0
2016-Jun-22 12:31N 30°11' W 093°19'0 0.0
2016-Jun-22 11:28N 30°11' W 093°19'0 0.0
2016-Jun-22 10:25N 30°11' W 093°19'0 0.0
2016-Jun-22 09:31N 30°11' W 093°19'0 0.0
2016-Jun-22 08:34N 30°11' W 093°19'0 0.0
2016-Jun-22 07:33N 30°11' W 093°19'0 0.0
2016-Jun-22 06:33N 30°11' W 093°19'0 0.0
2016-Jun-22 05:33N 30°11' W 093°19'0 0.0
2016-Jun-22 04:33N 30°11' W 093°19'0 0.0
2016-Jun-22 03:33N 30°11' W 093°19'0 0.0
2016-Jun-22 02:33N 30°11' W 093°19'0 0.0
2016-Jun-22 01:33N 30°11' W 093°19'0 0.0
2016-Jun-22 00:33N 30°11' W 093°19'0 0.0
2016-Jun-21 23:33N 30°11' W 093°19'0 0.0
2016-Jun-21 22:33N 30°11' W 093°19'0 0.0
2016-Jun-21 21:33N 30°11' W 093°19'0 0.0
2016-Jun-21 20:33N 30°11' W 093°19'0 0.0
2016-Jun-21 19:33N 30°11' W 093°19'0 0.0
2016-Jun-21 18:33N 30°11' W 093°19'0 0.0
2016-Jun-21 17:33N 30°11' W 093°19'0 0.0
2016-Jun-21 16:33N 30°11' W 093°19'0 0.0
2016-Jun-21 15:33N 30°11' W 093°19'0 0.0
2016-Jun-21 14:33N 30°11' W 093°19'0 0.0
2016-Jun-21 13:33N 30°11' W 093°19'0 0.0
2016-Jun-21 12:33N 30°11' W 093°19'0 0.0
2016-Jun-21 11:33N 30°11' W 093°19'  
Track history (hours):
 
Tides and Currents Weather Stations Pressure Air Temp Water Temp Dewpoint Dewpoint Depression Visibility Wind Speed Wind Dir Waves Ship Positions

Columbia

Owner: OSG Ship Management Inc., Tampa, FL. More information available from US FCC via Universal Licensing System and Coast Guard Vessel Documentation Center.

Last reported at 2016-Jul-01 11:31 UTC. Time now 2016-Jul-01 11:52 UTC.
Position N 30°11' W 093°19'.

Length 194 m; draft 9.6 m.

Type: Towing. MMSI: 367172440.

Date/timePositionNaut miles runAvg speedWind from/ knotsBaromVisibWave heightAir tempDewpointWater temp
2016-Jul-01 11:31N 30°11' W 093°19'0 0.0
2016-Jul-01 10:31N 30°11' W 093°19'0 0.0
2016-Jul-01 09:31N 30°11' W 093°19'0 0.0
2016-Jul-01 08:31N 30°11' W 093°19'0 0.0
2016-Jul-01 07:31N 30°11' W 093°19'0 0.0
2016-Jul-01 06:31N 30°11' W 093°19'0 0.0
2016-Jul-01 05:31N 30°11' W 093°19'0 0.0
2016-Jul-01 04:33N 30°11' W 093°19'1 1.4
2016-Jul-01 03:33N 30°09' W 093°20'7 7.5
2016-Jul-01 02:33N 30°02' W 093°20'8 8.3
2016-Jul-01 01:33N 29°54' W 093°21'7 6.8
2016-Jul-01 00:33N 29°47' W 093°21'  
2016-Jun-27 23:33N 27°45' W 082°31'9 8.7
2016-Jun-27 22:33N 27°53' W 082°26'3 3.1
2016-Jun-27 21:34N 27°56' W 082°27'2 1.9
2016-Jun-27 20:33N 27°54' W 082°26'1 1.0
2016-Jun-27 19:33N 27°55' W 082°26'0 0.0
2016-Jun-27 18:33N 27°55' W 082°26'0 0.0
2016-Jun-27 17:33N 27°55' W 082°26'0 0.0
2016-Jun-27 16:33N 27°55' W 082°26'1 1.1
2016-Jun-27 15:31N 27°54' W 082°25'0 0.0
2016-Jun-27 14:31N 27°54' W 082°25'0 0.0
2016-Jun-27 13:31N 27°54' W 082°25'0 0.0
2016-Jun-27 12:31N 27°54' W 082°25'1 0.1
2016-Jun-26 18:29N 27°55' W 082°26'1 1.1
2016-Jun-26 17:34N 27°55' W 082°27'1 0.6
2016-Jun-26 16:31N 27°56' W 082°27'0 0.4
2016-Jun-26 15:34N 27°56' W 082°27'3 2.8
2016-Jun-26 14:33N 27°54' W 082°26'8 7.5
2016-Jun-26 13:33N 27°47' W 082°31'  
2016-Jun-23 08:33N 29°45' W 093°20'8 8.3
2016-Jun-23 07:33N 29°53' W 093°21'15 7.5
2016-Jun-23 05:33N 30°08' W 093°20'3 2.6
2016-Jun-23 04:31N 30°11' W 093°19'0 0.0
2016-Jun-23 03:28N 30°11' W 093°19'0 0.0
2016-Jun-23 02:28N 30°11' W 093°19'0 0.0
2016-Jun-23 01:28N 30°11' W 093°19'0 0.0
2016-Jun-23 00:31N 30°11' W 093°19'0 0.0
2016-Jun-22 23:28N 30°11' W 093°19'0 0.0
2016-Jun-22 22:31N 30°11' W 093°19'0 0.0
2016-Jun-22 21:31N 30°11' W 093°19'0 0.0
2016-Jun-22 20:31N 30°11' W 093°19'0 0.0
2016-Jun-22 19:28N 30°11' W 093°19'0 0.0
2016-Jun-22 18:28N 30°11' W 093°19'0 0.0
2016-Jun-22 17:31N 30°11' W 093°19'0 0.0
2016-Jun-22 16:28N 30°11' W 093°19'0 0.0
2016-Jun-22 15:31N 30°11' W 093°19'0 0.0
2016-Jun-22 14:31N 30°11' W 093°19'0 0.0
2016-Jun-22 13:31N 30°11' W 093°19'0 0.0
2016-Jun-22 12:31N 30°11' W 093°19'0 0.0
2016-Jun-22 11:28N 30°11' W 093°19'0 0.0
2016-Jun-22 10:25N 30°11' W 093°19'0 0.0
2016-Jun-22 09:31N 30°11' W 093°19'0 0.0
2016-Jun-22 08:34N 30°11' W 093°19'0 0.0
2016-Jun-22 07:33N 30°11' W 093°19'0 0.0
2016-Jun-22 06:33N 30°11' W 093°19'0 0.0
2016-Jun-22 05:33N 30°11' W 093°19'0 0.0
2016-Jun-22 04:33N 30°11' W 093°19'0 0.0
2016-Jun-22 03:33N 30°11' W 093°19'0 0.0
2016-Jun-22 02:33N 30°11' W 093°19'0 0.0
2016-Jun-22 01:33N 30°11' W 093°19'0 0.0
2016-Jun-22 00:33N 30°11' W 093°19'0 0.0
2016-Jun-21 23:33N 30°11' W 093°19'0 0.0
2016-Jun-21 22:33N 30°11' W 093°19'0 0.0
2016-Jun-21 21:33N 30°11' W 093°19'0 0.0
2016-Jun-21 20:33N 30°11' W 093°19'0 0.0
2016-Jun-21 19:33N 30°11' W 093°19'0 0.0
2016-Jun-21 18:33N 30°11' W 093°19'0 0.0
2016-Jun-21 17:33N 30°11' W 093°19'0 0.0
2016-Jun-21 16:33N 30°11' W 093°19'0 0.0
2016-Jun-21 15:33N 30°11' W 093°19'0 0.0
2016-Jun-21 14:33N 30°11' W 093°19'0 0.0
2016-Jun-21 13:33N 30°11' W 093°19'0 0.0
2016-Jun-21 12:33N 30°11' W 093°19'0 0.0
2016-Jun-21 11:33N 30°11' W 093°19'  

Dump ship's entire track history